sensor_id;sensor_type;location;lat;lon;timestamp;P1;durP1;ratioP1;P2;durP2;ratioP2
53040;SDS011;39326;42.650;23.248;2024-02-23T00:01:28;11.87;;;10.57;;
53040;SDS011;39326;42.650;23.248;2024-02-23T00:03:54;15.40;;;10.97;;
53040;SDS011;39326;42.650;23.248;2024-02-23T00:06:22;11.90;;;10.80;;
53040;SDS011;39326;42.650;23.248;2024-02-23T00:08:52;14.07;;;10.63;;
53040;SDS011;39326;42.650;23.248;2024-02-23T00:11:19;11.30;;;10.20;;
53040;SDS011;39326;42.650;23.248;2024-02-23T00:13:45;11.77;;;10.63;;
53040;SDS011;39326;42.650;23.248;2024-02-23T00:16:11;10.40;;;9.33;;
53040;SDS011;39326;42.650;23.248;2024-02-23T00:18:37;12.97;;;10.33;;
53040;SDS011;39326;42.650;23.248;2024-02-23T00:21:03;11.50;;;10.30;;
53040;SDS011;39326;42.650;23.248;2024-02-23T00:23:29;12.20;;;10.90;;
53040;SDS011;39326;42.650;23.248;2024-02-23T00:25:55;11.03;;;9.93;;
53040;SDS011;39326;42.650;23.248;2024-02-23T00:28:21;12.53;;;11.33;;
53040;SDS011;39326;42.650;23.248;2024-02-23T00:30:47;12.03;;;10.73;;
53040;SDS011;39326;42.650;23.248;2024-02-23T00:33:12;13.20;;;12.00;;
53040;SDS011;39326;42.650;23.248;2024-02-23T00:35:38;12.33;;;11.13;;
53040;SDS011;39326;42.650;23.248;2024-02-23T00:38:04;13.13;;;11.20;;
53040;SDS011;39326;42.650;23.248;2024-02-23T00:40:30;11.67;;;10.53;;
53040;SDS011;39326;42.650;23.248;2024-02-23T00:42:56;12.37;;;11.17;;
53040;SDS011;39326;42.650;23.248;2024-02-23T00:45:22;11.43;;;10.33;;
53040;SDS011;39326;42.650;23.248;2024-02-23T00:47:47;12.97;;;11.57;;
53040;SDS011;39326;42.650;23.248;2024-02-23T00:50:13;13.23;;;11.43;;
53040;SDS011;39326;42.650;23.248;2024-02-23T00:52:39;11.70;;;10.40;;
53040;SDS011;39326;42.650;23.248;2024-02-23T00:55:06;13.20;;;11.80;;
53040;SDS011;39326;42.650;23.248;2024-02-23T00:57:33;12.93;;;11.13;;
53040;SDS011;39326;42.650;23.248;2024-02-23T01:00:01;11.33;;;10.33;;
53040;SDS011;39326;42.650;23.248;2024-02-23T01:02:28;11.57;;;10.47;;
53040;SDS011;39326;42.650;23.248;2024-02-23T01:04:54;11.10;;;10.00;;
53040;SDS011;39326;42.650;23.248;2024-02-23T01:07:22;10.37;;;9.40;;
53040;SDS011;39326;42.650;23.248;2024-02-23T01:09:48;10.70;;;9.70;;
53040;SDS011;39326;42.650;23.248;2024-02-23T01:12:13;11.10;;;10.00;;
53040;SDS011;39326;42.650;23.248;2024-02-23T01:14:38;11.70;;;10.67;;
53040;SDS011;39326;42.650;23.248;2024-02-23T01:17:04;11.07;;;9.90;;
53040;SDS011;39326;42.650;23.248;2024-02-23T01:19:29;11.47;;;10.37;;
53040;SDS011;39326;42.650;23.248;2024-02-23T01:21:55;11.40;;;10.30;;
53040;SDS011;39326;42.650;23.248;2024-02-23T01:24:24;10.73;;;9.63;;
53040;SDS011;39326;42.650;23.248;2024-02-23T01:26:54;11.93;;;10.83;;
53040;SDS011;39326;42.650;23.248;2024-02-23T01:29:20;11.50;;;10.40;;
53040;SDS011;39326;42.650;23.248;2024-02-23T01:31:47;10.67;;;9.60;;
53040;SDS011;39326;42.650;23.248;2024-02-23T01:34:13;10.83;;;9.80;;
53040;SDS011;39326;42.650;23.248;2024-02-23T01:36:38;11.40;;;10.30;;
53040;SDS011;39326;42.650;23.248;2024-02-23T01:39:04;10.00;;;9.00;;
53040;SDS011;39326;42.650;23.248;2024-02-23T01:41:30;10.27;;;9.33;;
53040;SDS011;39326;42.650;23.248;2024-02-23T01:43:55;9.47;;;8.57;;
53040;SDS011;39326;42.650;23.248;2024-02-23T01:46:21;10.07;;;9.07;;
53040;SDS011;39326;42.650;23.248;2024-02-23T01:48:46;9.50;;;8.60;;
53040;SDS011;39326;42.650;23.248;2024-02-23T01:51:12;9.30;;;8.40;;
53040;SDS011;39326;42.650;23.248;2024-02-23T01:53:38;9.33;;;8.33;;
53040;SDS011;39326;42.650;23.248;2024-02-23T01:56:04;12.00;;;8.83;;
53040;SDS011;39326;42.650;23.248;2024-02-23T01:58:31;9.90;;;8.70;;
53040;SDS011;39326;42.650;23.248;2024-02-23T02:01:00;9.97;;;9.07;;
53040;SDS011;39326;42.650;23.248;2024-02-23T02:03:25;10.80;;;9.17;;
53040;SDS011;39326;42.650;23.248;2024-02-23T02:05:51;10.23;;;9.23;;
53040;SDS011;39326;42.650;23.248;2024-02-23T02:08:18;9.77;;;8.73;;
53040;SDS011;39326;42.650;23.248;2024-02-23T02:10:45;9.83;;;8.83;;
53040;SDS011;39326;42.650;23.248;2024-02-23T02:13:11;10.13;;;9.23;;
53040;SDS011;39326;42.650;23.248;2024-02-23T02:15:36;11.57;;;10.43;;
53040;SDS011;39326;42.650;23.248;2024-02-23T02:18:02;11.30;;;10.17;;
53040;SDS011;39326;42.650;23.248;2024-02-23T02:20:28;9.23;;;8.33;;
53040;SDS011;39326;42.650;23.248;2024-02-23T02:22:57;10.40;;;9.33;;
53040;SDS011;39326;42.650;23.248;2024-02-23T02:25:23;10.10;;;9.13;;
53040;SDS011;39326;42.650;23.248;2024-02-23T02:27:48;9.90;;;9.00;;
53040;SDS011;39326;42.650;23.248;2024-02-23T02:30:14;9.80;;;8.80;;
53040;SDS011;39326;42.650;23.248;2024-02-23T02:32:39;9.33;;;8.30;;
53040;SDS011;39326;42.650;23.248;2024-02-23T02:35:05;10.23;;;9.23;;
53040;SDS011;39326;42.650;23.248;2024-02-23T02:37:31;10.10;;;8.97;;
53040;SDS011;39326;42.650;23.248;2024-02-23T02:39:56;9.53;;;8.73;;
53040;SDS011;39326;42.650;23.248;2024-02-23T02:42:21;9.40;;;8.60;;
53040;SDS011;39326;42.650;23.248;2024-02-23T02:44:47;9.50;;;8.50;;
53040;SDS011;39326;42.650;23.248;2024-02-23T02:47:12;8.50;;;7.80;;
53040;SDS011;39326;42.650;23.248;2024-02-23T02:49:39;9.10;;;8.27;;
53040;SDS011;39326;42.650;23.248;2024-02-23T02:52:05;9.27;;;8.37;;
53040;SDS011;39326;42.650;23.248;2024-02-23T02:54:31;10.20;;;9.20;;
53040;SDS011;39326;42.650;23.248;2024-02-23T02:56:56;9.80;;;8.90;;
53040;SDS011;39326;42.650;23.248;2024-02-23T02:59:22;10.00;;;9.07;;
53040;SDS011;39326;42.650;23.248;2024-02-23T03:01:48;10.07;;;9.07;;
53040;SDS011;39326;42.650;23.248;2024-02-23T03:04:13;9.60;;;8.70;;
53040;SDS011;39326;42.650;23.248;2024-02-23T03:06:39;9.83;;;8.83;;
53040;SDS011;39326;42.650;23.248;2024-02-23T03:09:04;9.97;;;9.07;;
53040;SDS011;39326;42.650;23.248;2024-02-23T03:11:30;9.23;;;8.37;;
53040;SDS011;39326;42.650;23.248;2024-02-23T03:13:55;9.40;;;8.50;;
53040;SDS011;39326;42.650;23.248;2024-02-23T03:16:21;9.53;;;8.57;;
53040;SDS011;39326;42.650;23.248;2024-02-23T03:18:48;10.10;;;9.10;;
53040;SDS011;39326;42.650;23.248;2024-02-23T03:21:14;11.20;;;10.00;;
53040;SDS011;39326;42.650;23.248;2024-02-23T03:23:40;12.07;;;9.97;;
53040;SDS011;39326;42.650;23.248;2024-02-23T03:26:09;9.83;;;8.90;;
53040;SDS011;39326;42.650;23.248;2024-02-23T03:28:34;10.70;;;9.70;;
53040;SDS011;39326;42.650;23.248;2024-02-23T03:31:00;10.73;;;9.73;;
53040;SDS011;39326;42.650;23.248;2024-02-23T03:33:25;10.27;;;9.37;;
53040;SDS011;39326;42.650;23.248;2024-02-23T03:35:51;11.63;;;10.07;;
53040;SDS011;39326;42.650;23.248;2024-02-23T03:38:17;11.33;;;10.13;;
53040;SDS011;39326;42.650;23.248;2024-02-23T03:40:42;11.80;;;10.70;;
53040;SDS011;39326;42.650;23.248;2024-02-23T03:43:08;10.77;;;9.83;;
53040;SDS011;39326;42.650;23.248;2024-02-23T03:45:33;10.10;;;9.20;;
53040;SDS011;39326;42.650;23.248;2024-02-23T03:47:59;10.97;;;9.90;;
53040;SDS011;39326;42.650;23.248;2024-02-23T03:50:25;9.90;;;9.00;;
53040;SDS011;39326;42.650;23.248;2024-02-23T03:52:50;10.50;;;9.47;;
53040;SDS011;39326;42.650;23.248;2024-02-23T03:55:16;10.03;;;9.03;;
53040;SDS011;39326;42.650;23.248;2024-02-23T03:57:41;10.73;;;9.73;;
53040;SDS011;39326;42.650;23.248;2024-02-23T04:00:07;10.40;;;9.40;;
53040;SDS011;39326;42.650;23.248;2024-02-23T04:02:34;10.83;;;9.73;;
53040;SDS011;39326;42.650;23.248;2024-02-23T04:04:59;10.10;;;9.20;;
53040;SDS011;39326;42.650;23.248;2024-02-23T04:07:25;10.20;;;9.23;;
53040;SDS011;39326;42.650;23.248;2024-02-23T04:09:50;11.50;;;10.30;;
53040;SDS011;39326;42.650;23.248;2024-02-23T04:12:19;11.47;;;10.27;;
53040;SDS011;39326;42.650;23.248;2024-02-23T04:14:45;10.83;;;9.37;;
53040;SDS011;39326;42.650;23.248;2024-02-23T04:17:11;11.53;;;10.33;;
53040;SDS011;39326;42.650;23.248;2024-02-23T04:19:37;11.70;;;10.50;;
53040;SDS011;39326;42.650;23.248;2024-02-23T04:22:02;11.57;;;10.37;;
53040;SDS011;39326;42.650;23.248;2024-02-23T04:24:28;10.57;;;9.63;;
53040;SDS011;39326;42.650;23.248;2024-02-23T04:26:54;10.00;;;9.13;;
53040;SDS011;39326;42.650;23.248;2024-02-23T04:29:19;11.47;;;10.47;;
53040;SDS011;39326;42.650;23.248;2024-02-23T04:31:44;11.07;;;10.03;;
53040;SDS011;39326;42.650;23.248;2024-02-23T04:34:10;11.10;;;10.10;;
53040;SDS011;39326;42.650;23.248;2024-02-23T04:36:35;10.27;;;9.27;;
53040;SDS011;39326;42.650;23.248;2024-02-23T04:39:01;11.60;;;10.50;;
53040;SDS011;39326;42.650;23.248;2024-02-23T04:41:26;10.67;;;9.67;;
53040;SDS011;39326;42.650;23.248;2024-02-23T04:43:52;11.50;;;10.37;;
53040;SDS011;39326;42.650;23.248;2024-02-23T04:46:23;11.50;;;10.43;;
53040;SDS011;39326;42.650;23.248;2024-02-23T04:48:49;11.00;;;10.00;;
53040;SDS011;39326;42.650;23.248;2024-02-23T04:51:14;12.23;;;9.40;;
53040;SDS011;39326;42.650;23.248;2024-02-23T04:53:39;10.30;;;9.30;;
53040;SDS011;39326;42.650;23.248;2024-02-23T04:56:05;10.60;;;9.60;;
53040;SDS011;39326;42.650;23.248;2024-02-23T04:58:30;11.07;;;9.53;;
53040;SDS011;39326;42.650;23.248;2024-02-23T05:00:56;12.40;;;11.10;;
53040;SDS011;39326;42.650;23.248;2024-02-23T05:03:21;11.17;;;10.00;;
53040;SDS011;39326;42.650;23.248;2024-02-23T05:05:47;13.30;;;12.10;;
53040;SDS011;39326;42.650;23.248;2024-02-23T05:08:14;13.97;;;12.60;;
53040;SDS011;39326;42.650;23.248;2024-02-23T05:10:40;14.57;;;13.27;;
53040;SDS011;39326;42.650;23.248;2024-02-23T05:13:05;13.23;;;12.07;;
53040;SDS011;39326;42.650;23.248;2024-02-23T05:15:31;13.27;;;12.10;;
53040;SDS011;39326;42.650;23.248;2024-02-23T05:17:56;11.67;;;10.57;;
53040;SDS011;39326;42.650;23.248;2024-02-23T05:20:21;10.10;;;9.10;;
53040;SDS011;39326;42.650;23.248;2024-02-23T05:22:47;11.13;;;10.03;;
53040;SDS011;39326;42.650;23.248;2024-02-23T05:25:13;10.37;;;9.47;;
53040;SDS011;39326;42.650;23.248;2024-02-23T05:27:38;11.10;;;10.00;;
53040;SDS011;39326;42.650;23.248;2024-02-23T05:30:04;12.30;;;11.00;;
53040;SDS011;39326;42.650;23.248;2024-02-23T05:32:31;10.43;;;9.37;;
53040;SDS011;39326;42.650;23.248;2024-02-23T05:34:57;10.10;;;9.03;;
53040;SDS011;39326;42.650;23.248;2024-02-23T05:37:22;10.40;;;9.40;;
53040;SDS011;39326;42.650;23.248;2024-02-23T05:39:47;10.37;;;9.47;;
53040;SDS011;39326;42.650;23.248;2024-02-23T05:42:13;10.77;;;9.83;;
53040;SDS011;39326;42.650;23.248;2024-02-23T05:44:39;10.23;;;9.23;;
53040;SDS011;39326;42.650;23.248;2024-02-23T05:47:04;9.43;;;8.53;;
53040;SDS011;39326;42.650;23.248;2024-02-23T05:49:30;10.70;;;9.60;;
53040;SDS011;39326;42.650;23.248;2024-02-23T05:51:56;10.70;;;9.70;;
53040;SDS011;39326;42.650;23.248;2024-02-23T05:54:21;10.50;;;9.50;;
53040;SDS011;39326;42.650;23.248;2024-02-23T05:56:46;11.83;;;10.70;;
53040;SDS011;39326;42.650;23.248;2024-02-23T05:59:12;10.37;;;9.47;;
53040;SDS011;39326;42.650;23.248;2024-02-23T06:01:37;11.50;;;10.20;;
53040;SDS011;39326;42.650;23.248;2024-02-23T06:04:03;11.00;;;10.00;;
53040;SDS011;39326;42.650;23.248;2024-02-23T06:06:28;10.60;;;9.60;;
53040;SDS011;39326;42.650;23.248;2024-02-23T06:08:54;9.57;;;8.67;;
53040;SDS011;39326;42.650;23.248;2024-02-23T06:11:19;12.83;;;11.50;;
53040;SDS011;39326;42.650;23.248;2024-02-23T06:13:45;11.07;;;10.07;;
53040;SDS011;39326;42.650;23.248;2024-02-23T06:16:10;10.57;;;9.57;;
53040;SDS011;39326;42.650;23.248;2024-02-23T06:18:36;10.07;;;9.07;;
53040;SDS011;39326;42.650;23.248;2024-02-23T06:21:12;10.03;;;9.03;;
53040;SDS011;39326;42.650;23.248;2024-02-23T06:23:42;11.33;;;10.17;;
53040;SDS011;39326;42.650;23.248;2024-02-23T06:26:08;10.77;;;9.77;;
53040;SDS011;39326;42.650;23.248;2024-02-23T06:28:33;11.30;;;10.20;;
53040;SDS011;39326;42.650;23.248;2024-02-23T06:30:59;11.63;;;10.50;;
53040;SDS011;39326;42.650;23.248;2024-02-23T06:33:24;11.90;;;10.30;;
53040;SDS011;39326;42.650;23.248;2024-02-23T06:35:50;11.60;;;10.40;;
53040;SDS011;39326;42.650;23.248;2024-02-23T06:38:17;11.30;;;10.10;;
53040;SDS011;39326;42.650;23.248;2024-02-23T06:40:42;12.13;;;10.83;;
53040;SDS011;39326;42.650;23.248;2024-02-23T06:43:08;11.83;;;10.63;;
53040;SDS011;39326;42.650;23.248;2024-02-23T06:45:33;11.27;;;10.27;;
53040;SDS011;39326;42.650;23.248;2024-02-23T06:47:59;11.37;;;10.17;;
53040;SDS011;39326;42.650;23.248;2024-02-23T06:50:24;12.07;;;10.90;;
53040;SDS011;39326;42.650;23.248;2024-02-23T06:52:49;11.97;;;10.77;;
53040;SDS011;39326;42.650;23.248;2024-02-23T06:55:15;11.73;;;10.53;;
53040;SDS011;39326;42.650;23.248;2024-02-23T06:57:42;12.90;;;10.90;;
53040;SDS011;39326;42.650;23.248;2024-02-23T07:00:08;12.73;;;11.50;;
53040;SDS011;39326;42.650;23.248;2024-02-23T07:02:34;15.10;;;13.50;;
53040;SDS011;39326;42.650;23.248;2024-02-23T07:05:02;13.53;;;12.33;;
53040;SDS011;39326;42.650;23.248;2024-02-23T07:07:32;13.90;;;12.47;;
53040;SDS011;39326;42.650;23.248;2024-02-23T07:10:01;13.87;;;12.10;;
53040;SDS011;39326;42.650;23.248;2024-02-23T07:12:27;14.13;;;11.53;;
53040;SDS011;39326;42.650;23.248;2024-02-23T07:14:54;13.87;;;12.23;;
53040;SDS011;39326;42.650;23.248;2024-02-23T07:17:20;14.90;;;13.30;;
53040;SDS011;39326;42.650;23.248;2024-02-23T07:19:45;14.77;;;12.70;;
53040;SDS011;39326;42.650;23.248;2024-02-23T07:22:11;13.60;;;12.33;;
53040;SDS011;39326;42.650;23.248;2024-02-23T07:24:40;14.03;;;12.43;;
53040;SDS011;39326;42.650;23.248;2024-02-23T07:27:06;14.33;;;12.87;;
53040;SDS011;39326;42.650;23.248;2024-02-23T07:29:31;14.00;;;12.60;;
53040;SDS011;39326;42.650;23.248;2024-02-23T07:31:57;12.23;;;11.03;;
53040;SDS011;39326;42.650;23.248;2024-02-23T07:34:22;13.57;;;11.93;;
53040;SDS011;39326;42.650;23.248;2024-02-23T07:36:51;12.83;;;11.53;;
53040;SDS011;39326;42.650;23.248;2024-02-23T07:39:17;13.90;;;12.43;;
53040;SDS011;39326;42.650;23.248;2024-02-23T07:41:42;12.43;;;11.13;;
53040;SDS011;39326;42.650;23.248;2024-02-23T07:44:08;12.10;;;10.97;;
53040;SDS011;39326;42.650;23.248;2024-02-23T07:46:33;11.97;;;10.77;;
53040;SDS011;39326;42.650;23.248;2024-02-23T07:48:58;12.63;;;10.60;;
53040;SDS011;39326;42.650;23.248;2024-02-23T07:51:24;12.37;;;11.07;;
53040;SDS011;39326;42.650;23.248;2024-02-23T07:53:49;14.00;;;10.63;;
53040;SDS011;39326;42.650;23.248;2024-02-23T07:56:15;11.47;;;10.37;;
53040;SDS011;39326;42.650;23.248;2024-02-23T07:58:40;11.87;;;10.67;;
53040;SDS011;39326;42.650;23.248;2024-02-23T08:01:06;12.67;;;11.37;;
53040;SDS011;39326;42.650;23.248;2024-02-23T08:03:31;12.20;;;11.10;;
53040;SDS011;39326;42.650;23.248;2024-02-23T08:05:56;12.80;;;11.40;;
53040;SDS011;39326;42.650;23.248;2024-02-23T08:08:22;14.03;;;12.67;;
53040;SDS011;39326;42.650;23.248;2024-02-23T08:10:48;12.43;;;11.13;;
53040;SDS011;39326;42.650;23.248;2024-02-23T08:13:14;13.63;;;12.23;;
53040;SDS011;39326;42.650;23.248;2024-02-23T08:15:40;14.60;;;12.43;;
53040;SDS011;39326;42.650;23.248;2024-02-23T08:18:05;14.17;;;11.63;;
53040;SDS011;39326;42.650;23.248;2024-02-23T08:20:31;15.57;;;13.10;;
53040;SDS011;39326;42.650;23.248;2024-02-23T08:22:56;13.57;;;12.27;;
53040;SDS011;39326;42.650;23.248;2024-02-23T08:25:22;14.27;;;12.80;;
53040;SDS011;39326;42.650;23.248;2024-02-23T08:27:47;13.43;;;12.07;;
53040;SDS011;39326;42.650;23.248;2024-02-23T08:30:14;14.77;;;11.80;;
53040;SDS011;39326;42.650;23.248;2024-02-23T08:32:39;13.17;;;11.63;;
53040;SDS011;39326;42.650;23.248;2024-02-23T08:35:05;13.37;;;12.07;;
53040;SDS011;39326;42.650;23.248;2024-02-23T08:37:32;14.47;;;12.97;;
53040;SDS011;39326;42.650;23.248;2024-02-23T08:39:57;14.17;;;12.87;;
53040;SDS011;39326;42.650;23.248;2024-02-23T08:42:22;13.83;;;12.50;;
53040;SDS011;39326;42.650;23.248;2024-02-23T08:44:48;15.63;;;13.97;;
53040;SDS011;39326;42.650;23.248;2024-02-23T08:47:13;14.63;;;13.33;;
53040;SDS011;39326;42.650;23.248;2024-02-23T08:49:39;16.73;;;12.90;;
53040;SDS011;39326;42.650;23.248;2024-02-23T08:52:04;14.80;;;13.37;;
53040;SDS011;39326;42.650;23.248;2024-02-23T08:54:30;13.53;;;12.23;;
53040;SDS011;39326;42.650;23.248;2024-02-23T08:56:55;14.37;;;12.87;;
53040;SDS011;39326;42.650;23.248;2024-02-23T08:59:21;13.52;;;12.27;;
53040;SDS011;39326;42.650;23.248;2024-02-23T09:01:46;14.57;;;13.07;;
53040;SDS011;39326;42.650;23.248;2024-02-23T09:04:12;13.63;;;12.40;;
53040;SDS011;39326;42.650;23.248;2024-02-23T09:06:38;11.97;;;10.47;;
53040;SDS011;39326;42.650;23.248;2024-02-23T09:09:04;11.47;;;10.27;;
53040;SDS011;39326;42.650;23.248;2024-02-23T09:11:29;11.00;;;10.00;;
53040;SDS011;39326;42.650;23.248;2024-02-23T09:13:55;9.98;;;8.70;;
53040;SDS011;39326;42.650;23.248;2024-02-23T09:16:20;11.13;;;10.07;;
53040;SDS011;39326;42.650;23.248;2024-02-23T09:18:48;9.63;;;8.73;;
53040;SDS011;39326;42.650;23.248;2024-02-23T09:21:14;9.77;;;8.77;;
53040;SDS011;39326;42.650;23.248;2024-02-23T09:23:39;9.75;;;8.75;;
53040;SDS011;39326;42.650;23.248;2024-02-23T09:26:08;8.57;;;7.65;;
53040;SDS011;39326;42.650;23.248;2024-02-23T09:28:35;7.32;;;6.72;;
53040;SDS011;39326;42.650;23.248;2024-02-23T09:31:00;7.65;;;6.97;;
53040;SDS011;39326;42.650;23.248;2024-02-23T09:33:26;8.50;;;7.22;;
53040;SDS011;39326;42.650;23.248;2024-02-23T09:35:51;8.20;;;7.40;;
53040;SDS011;39326;42.650;23.248;2024-02-23T09:38:17;6.65;;;6.05;;
53040;SDS011;39326;42.650;23.248;2024-02-23T09:40:42;8.40;;;7.43;;
53040;SDS011;39326;42.650;23.248;2024-02-23T09:43:08;6.47;;;5.88;;
53040;SDS011;39326;42.650;23.248;2024-02-23T09:45:34;6.25;;;5.85;;
53040;SDS011;39326;42.650;23.248;2024-02-23T09:47:59;6.88;;;5.55;;
53040;SDS011;39326;42.650;23.248;2024-02-23T09:50:28;6.03;;;5.53;;
53040;SDS011;39326;42.650;23.248;2024-02-23T09:52:55;5.65;;;5.15;;
53040;SDS011;39326;42.650;23.248;2024-02-23T09:55:23;5.72;;;5.22;;
53040;SDS011;39326;42.650;23.248;2024-02-23T09:57:49;6.00;;;5.43;;
53040;SDS011;39326;42.650;23.248;2024-02-23T10:00:21;5.18;;;4.68;;
53040;SDS011;39326;42.650;23.248;2024-02-23T10:02:48;5.70;;;5.13;;
53040;SDS011;39326;42.650;23.248;2024-02-23T10:05:14;5.38;;;4.85;;
53040;SDS011;39326;42.650;23.248;2024-02-23T10:07:42;5.47;;;4.68;;
53040;SDS011;39326;42.650;23.248;2024-02-23T10:10:08;4.93;;;4.43;;
53040;SDS011;39326;42.650;23.248;2024-02-23T10:12:34;4.70;;;4.07;;
53040;SDS011;39326;42.650;23.248;2024-02-23T10:15:00;3.85;;;3.55;;
53040;SDS011;39326;42.650;23.248;2024-02-23T10:17:29;5.20;;;4.80;;
53040;SDS011;39326;42.650;23.248;2024-02-23T10:19:58;4.10;;;3.80;;
53040;SDS011;39326;42.650;23.248;2024-02-23T10:22:24;3.65;;;3.35;;
53040;SDS011;39326;42.650;23.248;2024-02-23T10:24:55;3.85;;;3.55;;
53040;SDS011;39326;42.650;23.248;2024-02-23T10:27:20;4.00;;;3.60;;
53040;SDS011;39326;42.650;23.248;2024-02-23T10:29:49;3.85;;;3.55;;
53040;SDS011;39326;42.650;23.248;2024-02-23T10:32:15;3.08;;;2.88;;
53040;SDS011;39326;42.650;23.248;2024-02-23T10:34:42;3.03;;;2.45;;
53040;SDS011;39326;42.650;23.248;2024-02-23T10:37:08;2.65;;;2.45;;
53040;SDS011;39326;42.650;23.248;2024-02-23T10:39:36;2.78;;;2.58;;
53040;SDS011;39326;42.650;23.248;2024-02-23T10:42:05;3.00;;;2.55;;
53040;SDS011;39326;42.650;23.248;2024-02-23T10:44:34;3.42;;;2.65;;
53040;SDS011;39326;42.650;23.248;2024-02-23T10:47:01;3.05;;;2.75;;
53040;SDS011;39326;42.650;23.248;2024-02-23T10:49:28;2.88;;;2.67;;
53040;SDS011;39326;42.650;23.248;2024-02-23T10:51:54;2.53;;;2.33;;
53040;SDS011;39326;42.650;23.248;2024-02-23T10:54:20;3.10;;;2.20;;
53040;SDS011;39326;42.650;23.248;2024-02-23T10:56:47;2.60;;;2.33;;
53040;SDS011;39326;42.650;23.248;2024-02-23T10:59:14;2.60;;;2.30;;
53040;SDS011;39326;42.650;23.248;2024-02-23T11:01:43;2.42;;;2.22;;
53040;SDS011;39326;42.650;23.248;2024-02-23T11:04:14;2.40;;;2.20;;
53040;SDS011;39326;42.650;23.248;2024-02-23T11:06:50;2.30;;;2.10;;
53040;SDS011;39326;42.650;23.248;2024-02-23T11:09:25;2.22;;;1.88;;
53040;SDS011;39326;42.650;23.248;2024-02-23T11:17:01;2.08;;;1.83;;
53040;SDS011;39326;42.650;23.248;2024-02-23T11:19:34;2.03;;;1.85;;
53040;SDS011;39326;42.650;23.248;2024-02-23T11:22:00;2.40;;;2.20;;
53040;SDS011;39326;42.650;23.248;2024-02-23T11:24:31;2.53;;;1.95;;
53040;SDS011;39326;42.650;23.248;2024-02-23T11:27:00;2.30;;;2.10;;
53040;SDS011;39326;42.650;23.248;2024-02-23T11:29:33;1.50;;;1.40;;
53040;SDS011;39326;42.650;23.248;2024-02-23T11:32:00;1.67;;;1.58;;
53040;SDS011;39326;42.650;23.248;2024-02-23T11:34:29;1.92;;;1.73;;
53040;SDS011;39326;42.650;23.248;2024-02-23T11:36:55;2.78;;;2.00;;
53040;SDS011;39326;42.650;23.248;2024-02-23T11:39:21;2.22;;;2.03;;
53040;SDS011;39326;42.650;23.248;2024-02-23T11:41:48;2.20;;;1.88;;
53040;SDS011;39326;42.650;23.248;2024-02-23T11:44:14;2.75;;;2.53;;
53040;SDS011;39326;42.650;23.248;2024-02-23T11:46:42;2.03;;;1.80;;
53040;SDS011;39326;42.650;23.248;2024-02-23T11:49:08;4.90;;;2.15;;
53040;SDS011;39326;42.650;23.248;2024-02-23T11:51:34;2.10;;;2.00;;
53040;SDS011;39326;42.650;23.248;2024-02-23T11:54:00;2.00;;;1.90;;
53040;SDS011;39326;42.650;23.248;2024-02-23T11:56:26;5.45;;;1.90;;
53040;SDS011;39326;42.650;23.248;2024-02-23T11:58:53;2.78;;;1.88;;
53040;SDS011;39326;42.650;23.248;2024-02-23T12:01:19;2.30;;;2.10;;
53040;SDS011;39326;42.650;23.248;2024-02-23T12:03:44;1.85;;;1.75;;
53040;SDS011;39326;42.650;23.248;2024-02-23T12:06:10;2.00;;;1.90;;
53040;SDS011;39326;42.650;23.248;2024-02-23T12:08:36;1.70;;;1.60;;
53040;SDS011;39326;42.650;23.248;2024-02-23T12:11:06;2.40;;;2.20;;
53040;SDS011;39326;42.650;23.248;2024-02-23T12:13:36;2.30;;;2.05;;
53040;SDS011;39326;42.650;23.248;2024-02-23T12:16:01;2.15;;;2.00;;
53040;SDS011;39326;42.650;23.248;2024-02-23T12:18:27;2.00;;;1.90;;
53040;SDS011;39326;42.650;23.248;2024-02-23T12:20:59;2.22;;;2.03;;
53040;SDS011;39326;42.650;23.248;2024-02-23T12:23:47;2.83;;;2.47;;
53040;SDS011;39326;42.650;23.248;2024-02-23T12:26:14;2.38;;;2.17;;
53040;SDS011;39326;42.650;23.248;2024-02-23T12:28:41;2.65;;;2.45;;
53040;SDS011;39326;42.650;23.248;2024-02-23T12:31:07;2.50;;;2.20;;
53040;SDS011;39326;42.650;23.248;2024-02-23T12:33:33;2.03;;;1.92;;
53040;SDS011;39326;42.650;23.248;2024-02-23T12:36:00;2.88;;;2.00;;
53040;SDS011;39326;42.650;23.248;2024-02-23T12:38:26;2.38;;;1.95;;
53040;SDS011;39326;42.650;23.248;2024-02-23T12:40:52;1.98;;;1.77;;
53040;SDS011;39326;42.650;23.248;2024-02-23T12:43:18;2.83;;;2.15;;
53040;SDS011;39326;42.650;23.248;2024-02-23T12:45:46;2.20;;;2.00;;
53040;SDS011;39326;42.650;23.248;2024-02-23T12:48:14;2.58;;;1.95;;
53040;SDS011;39326;42.650;23.248;2024-02-23T12:50:40;2.40;;;2.13;;
53040;SDS011;39326;42.650;23.248;2024-02-23T12:53:05;2.15;;;2.00;;
53040;SDS011;39326;42.650;23.248;2024-02-23T12:55:31;2.05;;;1.80;;
53040;SDS011;39326;42.650;23.248;2024-02-23T12:57:56;2.25;;;2.10;;
53040;SDS011;39326;42.650;23.248;2024-02-23T13:00:22;2.33;;;2.13;;
53040;SDS011;39326;42.650;23.248;2024-02-23T13:02:47;2.75;;;1.77;;
53040;SDS011;39326;42.650;23.248;2024-02-23T13:05:12;2.38;;;2.00;;
53040;SDS011;39326;42.650;23.248;2024-02-23T13:07:38;2.08;;;1.98;;
53040;SDS011;39326;42.650;23.248;2024-02-23T13:10:05;2.70;;;2.10;;
53040;SDS011;39326;42.650;23.248;2024-02-23T13:12:31;2.17;;;2.05;;
53040;SDS011;39326;42.650;23.248;2024-02-23T13:14:57;2.15;;;1.80;;
53040;SDS011;39326;42.650;23.248;2024-02-23T13:17:22;1.92;;;1.83;;
53040;SDS011;39326;42.650;23.248;2024-02-23T13:19:48;1.70;;;1.60;;
53040;SDS011;39326;42.650;23.248;2024-02-23T13:22:13;3.22;;;1.90;;
53040;SDS011;39326;42.650;23.248;2024-02-23T13:24:39;2.30;;;2.10;;
53040;SDS011;39326;42.650;23.248;2024-02-23T13:27:05;2.47;;;1.88;;
53040;SDS011;39326;42.650;23.248;2024-02-23T13:29:31;2.13;;;1.92;;
53040;SDS011;39326;42.650;23.248;2024-02-23T13:31:56;2.63;;;1.98;;
53040;SDS011;39326;42.650;23.248;2024-02-23T13:34:22;2.65;;;1.85;;
53040;SDS011;39326;42.650;23.248;2024-02-23T13:36:47;3.22;;;2.30;;
53040;SDS011;39326;42.650;23.248;2024-02-23T13:39:14;2.47;;;2.28;;
53040;SDS011;39326;42.650;23.248;2024-02-23T13:41:40;3.28;;;2.20;;
53040;SDS011;39326;42.650;23.248;2024-02-23T13:44:06;3.28;;;2.20;;
53040;SDS011;39326;42.650;23.248;2024-02-23T13:46:31;2.92;;;2.25;;
53040;SDS011;39326;42.650;23.248;2024-02-23T13:49:03;2.80;;;2.50;;
53040;SDS011;39326;42.650;23.248;2024-02-23T13:51:31;2.83;;;2.33;;
53040;SDS011;39326;42.650;23.248;2024-02-23T13:53:57;1.95;;;1.83;;
53040;SDS011;39326;42.650;23.248;2024-02-23T13:56:22;2.55;;;2.08;;
53040;SDS011;39326;42.650;23.248;2024-02-23T13:58:48;2.40;;;2.13;;
53040;SDS011;39326;42.650;23.248;2024-02-23T14:01:14;2.40;;;2.17;;
53040;SDS011;39326;42.650;23.248;2024-02-23T14:03:40;2.00;;;1.90;;
53040;SDS011;39326;42.650;23.248;2024-02-23T14:06:05;2.97;;;2.15;;
53040;SDS011;39326;42.650;23.248;2024-02-23T14:08:31;2.20;;;2.00;;
53040;SDS011;39326;42.650;23.248;2024-02-23T14:10:59;2.85;;;2.15;;
53040;SDS011;39326;42.650;23.248;2024-02-23T14:13:25;2.08;;;1.83;;
53040;SDS011;39326;42.650;23.248;2024-02-23T14:15:50;3.10;;;2.15;;
53040;SDS011;39326;42.650;23.248;2024-02-23T14:18:16;2.88;;;2.13;;
53040;SDS011;39326;42.650;23.248;2024-02-23T14:20:41;2.75;;;2.30;;